sensor_id;sensor_type;location;lat;lon;timestamp;P1;durP1;ratioP1;P2;durP2;ratioP2
15716;SDS011;7960;50.908;4.204;2023-06-19T16:26:31;7.38;;;5.50;;
15716;SDS011;7960;50.908;4.204;2023-06-19T16:28:57;7.38;;;6.53;;
15716;SDS011;7960;50.908;4.204;2023-06-19T16:31:24;7.60;;;5.95;;
15716;SDS011;7960;50.908;4.204;2023-06-19T16:33:51;6.53;;;5.93;;
15716;SDS011;7960;50.908;4.204;2023-06-19T16:36:18;7.13;;;6.28;;
15716;SDS011;7960;50.908;4.204;2023-06-19T16:38:45;9.82;;;6.22;;
15716;SDS011;7960;50.908;4.204;2023-06-19T16:41:12;7.47;;;5.75;;
15716;SDS011;7960;50.908;4.204;2023-06-19T16:43:42;7.60;;;6.25;;
15716;SDS011;7960;50.908;4.204;2023-06-19T16:46:09;7.80;;;6.32;;
15716;SDS011;7960;50.908;4.204;2023-06-19T16:48:35;6.50;;;5.85;;
15716;SDS011;7960;50.908;4.204;2023-06-19T16:51:02;8.05;;;6.00;;
15716;SDS011;7960;50.908;4.204;2023-06-19T16:53:29;6.95;;;6.25;;
15716;SDS011;7960;50.908;4.204;2023-06-19T16:55:56;7.70;;;6.65;;
15716;SDS011;7960;50.908;4.204;2023-06-19T16:58:23;7.13;;;6.43;;
15716;SDS011;7960;50.908;4.204;2023-06-19T17:00:52;7.30;;;6.35;;
15716;SDS011;7960;50.908;4.204;2023-06-19T17:03:19;7.20;;;6.28;;
15716;SDS011;7960;50.908;4.204;2023-06-19T17:05:47;8.02;;;6.45;;
15716;SDS011;7960;50.908;4.204;2023-06-19T17:08:14;6.63;;;5.95;;
15716;SDS011;7960;50.908;4.204;2023-06-19T17:10:41;7.80;;;5.95;;
15716;SDS011;7960;50.908;4.204;2023-06-19T17:13:10;8.85;;;5.78;;
15716;SDS011;7960;50.908;4.204;2023-06-19T17:15:37;6.63;;;5.70;;
15716;SDS011;7960;50.908;4.204;2023-06-19T17:18:06;7.20;;;5.80;;
15716;SDS011;7960;50.908;4.204;2023-06-19T17:20:32;7.65;;;5.80;;
15716;SDS011;7960;50.908;4.204;2023-06-19T17:22:59;7.90;;;5.85;;
15716;SDS011;7960;50.908;4.204;2023-06-19T17:25:26;6.72;;;6.13;;
15716;SDS011;7960;50.908;4.204;2023-06-19T17:27:53;7.55;;;6.15;;
15716;SDS011;7960;50.908;4.204;2023-06-19T17:30:20;9.10;;;6.30;;
15716;SDS011;7960;50.908;4.204;2023-06-19T17:32:48;6.25;;;5.63;;
15716;SDS011;7960;50.908;4.204;2023-06-19T17:35:16;9.75;;;6.18;;
15716;SDS011;7960;50.908;4.204;2023-06-19T17:37:43;6.88;;;5.63;;
15716;SDS011;7960;50.908;4.204;2023-06-19T17:40:11;9.07;;;6.45;;
15716;SDS011;7960;50.908;4.204;2023-06-19T17:42:38;7.72;;;6.00;;
15716;SDS011;7960;50.908;4.204;2023-06-19T17:45:06;6.90;;;6.20;;
15716;SDS011;7960;50.908;4.204;2023-06-19T17:47:33;8.35;;;6.22;;
15716;SDS011;7960;50.908;4.204;2023-06-19T17:50:00;7.25;;;6.47;;
15716;SDS011;7960;50.908;4.204;2023-06-19T17:52:29;7.55;;;6.55;;
15716;SDS011;7960;50.908;4.204;2023-06-19T17:54:55;7.75;;;5.88;;
15716;SDS011;7960;50.908;4.204;2023-06-19T17:57:22;7.00;;;6.10;;
15716;SDS011;7960;50.908;4.204;2023-06-19T17:59:49;7.05;;;6.00;;
15716;SDS011;7960;50.908;4.204;2023-06-19T18:02:16;9.73;;;6.80;;
15716;SDS011;7960;50.908;4.204;2023-06-19T18:04:43;6.90;;;6.00;;
15716;SDS011;7960;50.908;4.204;2023-06-19T18:07:10;6.95;;;5.93;;
15716;SDS011;7960;50.908;4.204;2023-06-19T18:09:38;10.10;;;6.28;;
15716;SDS011;7960;50.908;4.204;2023-06-19T18:12:05;10.05;;;7.00;;
15716;SDS011;7960;50.908;4.204;2023-06-19T18:14:34;8.95;;;6.15;;
15716;SDS011;7960;50.908;4.204;2023-06-19T18:17:01;7.03;;;6.40;;
15716;SDS011;7960;50.908;4.204;2023-06-19T18:19:29;11.05;;;7.97;;
15716;SDS011;7960;50.908;4.204;2023-06-19T18:21:56;8.73;;;6.50;;
15716;SDS011;7960;50.908;4.204;2023-06-19T18:24:23;8.50;;;6.75;;
15716;SDS011;7960;50.908;4.204;2023-06-19T18:26:51;7.10;;;6.10;;
15716;SDS011;7960;50.908;4.204;2023-06-19T18:29:18;6.95;;;6.28;;
15716;SDS011;7960;50.908;4.204;2023-06-19T18:31:46;8.85;;;6.38;;
15716;SDS011;7960;50.908;4.204;2023-06-19T18:34:13;7.25;;;6.53;;
15716;SDS011;7960;50.908;4.204;2023-06-19T18:36:40;16.75;;;6.25;;
15716;SDS011;7960;50.908;4.204;2023-06-19T18:39:07;10.38;;;6.10;;
15716;SDS011;7960;50.908;4.204;2023-06-19T18:41:34;7.97;;;6.22;;
15716;SDS011;7960;50.908;4.204;2023-06-19T18:44:02;7.07;;;6.43;;
15716;SDS011;7960;50.908;4.204;2023-06-19T18:46:29;8.23;;;6.45;;
15716;SDS011;7960;50.908;4.204;2023-06-19T18:48:56;9.15;;;7.30;;
15716;SDS011;7960;50.908;4.204;2023-06-19T18:51:23;6.78;;;6.07;;
15716;SDS011;7960;50.908;4.204;2023-06-19T18:53:50;6.95;;;6.25;;
15716;SDS011;7960;50.908;4.204;2023-06-19T18:56:17;7.13;;;6.43;;
15716;SDS011;7960;50.908;4.204;2023-06-19T18:58:44;7.15;;;6.38;;
15716;SDS011;7960;50.908;4.204;2023-06-19T19:01:12;8.38;;;6.60;;
15716;SDS011;7960;50.908;4.204;2023-06-19T19:03:39;6.60;;;6.00;;
15716;SDS011;7960;50.908;4.204;2023-06-19T19:06:07;7.50;;;6.28;;
15716;SDS011;7960;50.908;4.204;2023-06-19T19:08:34;7.10;;;6.03;;
15716;SDS011;7960;50.908;4.204;2023-06-19T19:11:00;8.88;;;6.13;;
15716;SDS011;7960;50.908;4.204;2023-06-19T19:13:28;7.07;;;5.97;;
15716;SDS011;7960;50.908;4.204;2023-06-19T19:15:55;7.28;;;6.35;;
15716;SDS011;7960;50.908;4.204;2023-06-19T19:18:23;7.78;;;6.25;;
15716;SDS011;7960;50.908;4.204;2023-06-19T19:20:50;7.53;;;6.40;;
15716;SDS011;7960;50.908;4.204;2023-06-19T19:23:17;7.90;;;6.50;;
15716;SDS011;7960;50.908;4.204;2023-06-19T19:25:44;6.70;;;6.10;;
15716;SDS011;7960;50.908;4.204;2023-06-19T19:28:11;7.47;;;6.78;;
15716;SDS011;7960;50.908;4.204;2023-06-19T19:30:39;8.90;;;7.70;;
15716;SDS011;7960;50.908;4.204;2023-06-19T19:33:08;10.00;;;6.90;;
15716;SDS011;7960;50.908;4.204;2023-06-19T19:35:37;10.35;;;6.32;;
15716;SDS011;7960;50.908;4.204;2023-06-19T19:38:07;9.85;;;6.38;;
15716;SDS011;7960;50.908;4.204;2023-06-19T19:40:34;8.82;;;5.97;;
15716;SDS011;7960;50.908;4.204;2023-06-19T19:43:02;8.48;;;6.68;;
15716;SDS011;7960;50.908;4.204;2023-06-19T19:45:29;10.10;;;6.50;;
15716;SDS011;7960;50.908;4.204;2023-06-19T19:47:55;10.35;;;6.63;;
15716;SDS011;7960;50.908;4.204;2023-06-19T19:50:22;7.65;;;6.82;;
15716;SDS011;7960;50.908;4.204;2023-06-19T19:52:51;8.43;;;6.72;;
15716;SDS011;7960;50.908;4.204;2023-06-19T19:55:18;8.00;;;6.45;;
15716;SDS011;7960;50.908;4.204;2023-06-19T19:57:45;7.32;;;6.32;;
15716;SDS011;7960;50.908;4.204;2023-06-19T20:00:12;8.30;;;6.15;;
15716;SDS011;7960;50.908;4.204;2023-06-19T20:02:40;9.00;;;6.15;;
15716;SDS011;7960;50.908;4.204;2023-06-19T20:05:07;11.75;;;6.88;;
15716;SDS011;7960;50.908;4.204;2023-06-19T20:07:34;8.02;;;6.50;;
15716;SDS011;7960;50.908;4.204;2023-06-19T20:10:03;8.82;;;6.45;;
15716;SDS011;7960;50.908;4.204;2023-06-19T20:12:31;10.48;;;7.10;;
15716;SDS011;7960;50.908;4.204;2023-06-19T20:14:58;8.38;;;6.53;;
15716;SDS011;7960;50.908;4.204;2023-06-19T20:17:26;11.60;;;6.40;;
15716;SDS011;7960;50.908;4.204;2023-06-19T20:19:53;8.30;;;7.05;;
15716;SDS011;7960;50.908;4.204;2023-06-19T20:22:20;9.73;;;7.03;;
15716;SDS011;7960;50.908;4.204;2023-06-19T20:24:47;10.27;;;7.35;;
15716;SDS011;7960;50.908;4.204;2023-06-19T20:27:15;11.85;;;8.73;;
15716;SDS011;7960;50.908;4.204;2023-06-19T20:29:42;13.23;;;8.55;;
15716;SDS011;7960;50.908;4.204;2023-06-19T20:32:09;9.82;;;7.07;;
15716;SDS011;7960;50.908;4.204;2023-06-19T20:34:36;6.90;;;6.20;;
15716;SDS011;7960;50.908;4.204;2023-06-19T20:37:04;8.23;;;6.22;;
15716;SDS011;7960;50.908;4.204;2023-06-19T20:39:32;9.80;;;6.55;;
15716;SDS011;7960;50.908;4.204;2023-06-19T20:41:59;8.63;;;6.60;;
15716;SDS011;7960;50.908;4.204;2023-06-19T20:44:28;7.22;;;6.38;;
15716;SDS011;7960;50.908;4.204;2023-06-19T20:46:55;7.70;;;6.50;;
15716;SDS011;7960;50.908;4.204;2023-06-19T20:49:22;9.10;;;6.30;;
15716;SDS011;7960;50.908;4.204;2023-06-19T20:51:49;7.45;;;6.65;;
15716;SDS011;7960;50.908;4.204;2023-06-19T20:54:16;11.63;;;7.00;;
15716;SDS011;7960;50.908;4.204;2023-06-19T20:56:44;9.95;;;6.95;;
15716;SDS011;7960;50.908;4.204;2023-06-19T20:59:11;6.93;;;6.20;;
15716;SDS011;7960;50.908;4.204;2023-06-19T21:01:39;10.23;;;6.53;;
15716;SDS011;7960;50.908;4.204;2023-06-19T21:04:08;9.87;;;6.50;;
15716;SDS011;7960;50.908;4.204;2023-06-19T21:06:35;8.55;;;6.60;;
15716;SDS011;7960;50.908;4.204;2023-06-19T21:09:02;7.90;;;6.97;;
15716;SDS011;7960;50.908;4.204;2023-06-19T21:11:29;9.70;;;7.37;;
15716;SDS011;7960;50.908;4.204;2023-06-19T21:13:57;8.57;;;7.72;;
15716;SDS011;7960;50.908;4.204;2023-06-19T21:16:24;12.35;;;7.63;;
15716;SDS011;7960;50.908;4.204;2023-06-19T21:18:53;7.40;;;6.55;;
15716;SDS011;7960;50.908;4.204;2023-06-19T21:21:20;8.43;;;7.10;;
15716;SDS011;7960;50.908;4.204;2023-06-19T21:23:46;7.70;;;6.55;;
15716;SDS011;7960;50.908;4.204;2023-06-19T21:26:13;9.10;;;6.60;;
15716;SDS011;7960;50.908;4.204;2023-06-19T21:28:41;11.07;;;6.70;;
15716;SDS011;7960;50.908;4.204;2023-06-19T21:31:07;11.47;;;7.80;;
15716;SDS011;7960;50.908;4.204;2023-06-19T21:33:34;11.93;;;7.00;;
15716;SDS011;7960;50.908;4.204;2023-06-19T21:36:03;11.53;;;6.90;;
15716;SDS011;7960;50.908;4.204;2023-06-19T21:38:30;9.43;;;6.70;;
15716;SDS011;7960;50.908;4.204;2023-06-19T21:40:59;13.45;;;6.90;;
15716;SDS011;7960;50.908;4.204;2023-06-19T21:43:26;9.53;;;7.50;;
15716;SDS011;7960;50.908;4.204;2023-06-19T21:45:53;9.53;;;7.27;;
15716;SDS011;7960;50.908;4.204;2023-06-19T21:48:21;8.43;;;7.50;;
15716;SDS011;7960;50.908;4.204;2023-06-19T21:50:49;10.97;;;6.70;;
15716;SDS011;7960;50.908;4.204;2023-06-19T21:53:18;10.93;;;6.47;;
15716;SDS011;7960;50.908;4.204;2023-06-19T21:55:45;8.57;;;7.00;;
15716;SDS011;7960;50.908;4.204;2023-06-19T21:58:12;9.98;;;7.57;;
15716;SDS011;7960;50.908;4.204;2023-06-19T22:00:38;9.90;;;7.32;;
15716;SDS011;7960;50.908;4.204;2023-06-19T22:03:05;11.30;;;7.67;;
15716;SDS011;7960;50.908;4.204;2023-06-19T22:05:32;16.40;;;7.90;;
15716;SDS011;7960;50.908;4.204;2023-06-19T22:07:59;9.70;;;7.07;;
15716;SDS011;7960;50.908;4.204;2023-06-19T22:10:27;9.93;;;7.20;;
15716;SDS011;7960;50.908;4.204;2023-06-19T22:12:54;10.00;;;7.67;;
15716;SDS011;7960;50.908;4.204;2023-06-19T22:15:21;10.13;;;7.63;;
15716;SDS011;7960;50.908;4.204;2023-06-19T22:17:48;9.73;;;7.60;;
15716;SDS011;7960;50.908;4.204;2023-06-19T22:20:15;9.03;;;7.20;;
15716;SDS011;7960;50.908;4.204;2023-06-19T22:22:43;9.83;;;7.00;;
15716;SDS011;7960;50.908;4.204;2023-06-19T22:25:10;16.15;;;6.88;;
15716;SDS011;7960;50.908;4.204;2023-06-19T22:27:38;9.82;;;6.90;;
15716;SDS011;7960;50.908;4.204;2023-06-19T22:30:09;10.13;;;7.43;;
15716;SDS011;7960;50.908;4.204;2023-06-19T22:32:37;12.20;;;7.00;;
15716;SDS011;7960;50.908;4.204;2023-06-19T22:35:04;7.68;;;6.70;;
15716;SDS011;7960;50.908;4.204;2023-06-19T22:37:31;10.85;;;7.07;;
15716;SDS011;7960;50.908;4.204;2023-06-19T22:39:58;7.70;;;6.35;;
15716;SDS011;7960;50.908;4.204;2023-06-19T22:42:25;10.20;;;7.70;;
15716;SDS011;7960;50.908;4.204;2023-06-19T22:44:53;7.37;;;6.67;;
15716;SDS011;7960;50.908;4.204;2023-06-19T22:47:20;9.63;;;6.68;;
15716;SDS011;7960;50.908;4.204;2023-06-19T22:49:48;10.00;;;6.47;;
15716;SDS011;7960;50.908;4.204;2023-06-19T22:52:15;12.57;;;7.53;;
15716;SDS011;7960;50.908;4.204;2023-06-19T22:54:42;9.27;;;6.97;;
15716;SDS011;7960;50.908;4.204;2023-06-19T22:57:08;8.53;;;6.33;;
15716;SDS011;7960;50.908;4.204;2023-06-19T22:59:35;20.57;;;7.63;;
15716;SDS011;7960;50.908;4.204;2023-06-19T23:02:04;11.77;;;7.07;;
15716;SDS011;7960;50.908;4.204;2023-06-19T23:04:31;11.97;;;7.60;;
15716;SDS011;7960;50.908;4.204;2023-06-19T23:06:57;8.20;;;7.07;;
15716;SDS011;7960;50.908;4.204;2023-06-19T23:09:26;9.57;;;7.53;;
15716;SDS011;7960;50.908;4.204;2023-06-19T23:11:55;10.30;;;7.37;;
15716;SDS011;7960;50.908;4.204;2023-06-19T23:14:22;14.37;;;7.50;;
15716;SDS011;7960;50.908;4.204;2023-06-19T23:16:49;11.83;;;6.63;;
15716;SDS011;7960;50.908;4.204;2023-06-19T23:19:17;12.50;;;7.60;;
15716;SDS011;7960;50.908;4.204;2023-06-19T23:21:44;10.97;;;7.33;;
15716;SDS011;7960;50.908;4.204;2023-06-19T23:24:10;10.43;;;7.43;;
15716;SDS011;7960;50.908;4.204;2023-06-19T23:26:37;10.63;;;7.47;;
15716;SDS011;7960;50.908;4.204;2023-06-19T23:29:04;13.90;;;8.40;;
15716;SDS011;7960;50.908;4.204;2023-06-19T23:31:32;10.40;;;7.33;;
15716;SDS011;7960;50.908;4.204;2023-06-19T23:33:59;8.10;;;7.13;;
15716;SDS011;7960;50.908;4.204;2023-06-19T23:36:28;14.00;;;7.40;;
15716;SDS011;7960;50.908;4.204;2023-06-19T23:38:55;8.33;;;7.40;;
15716;SDS011;7960;50.908;4.204;2023-06-19T23:41:22;8.53;;;7.27;;
15716;SDS011;7960;50.908;4.204;2023-06-19T23:43:48;9.40;;;8.00;;
15716;SDS011;7960;50.908;4.204;2023-06-19T23:46:15;11.13;;;7.67;;
15716;SDS011;7960;50.908;4.204;2023-06-19T23:48:43;9.37;;;7.70;;
15716;SDS011;7960;50.908;4.204;2023-06-19T23:51:10;9.00;;;8.10;;
15716;SDS011;7960;50.908;4.204;2023-06-19T23:53:40;9.60;;;7.47;;
15716;SDS011;7960;50.908;4.204;2023-06-19T23:56:07;10.50;;;8.83;;
15716;SDS011;7960;50.908;4.204;2023-06-19T23:58:33;9.13;;;8.10;;
